Millard, Kentucky
Current Conditions -  °F | °C
As of 6:15 AM on Tuesday 21 Oct 2014 (Local Time) from KPBX Reporting Station
Broken Clouds Broken Clouds  
Wind Chill: 51°   Ceiling: 5500
Heat Index: 51°   Visibility: 10mi
Dew Point: 47°   Wind: 3mph
Humidity: 88%   Direction: 190°S
Pressure: 29.94"   Gusts: NA
Location:  37.3722°N, 82.4513°W
Report Text: KPBX 211015Z AUTO 19003KT 10SM SCT035 BKN055 11/09 A2994 RMK AO2 T01050086
Loading
Personal Weather Stations






























Interactive Weather Map
Tropical Storm Tracking
New forecast layout! Learn more

10-Day Weather Forecast

Advertisements
Track Severe Weather on mobile